createdAt,value
2023-03-21T00:00:26.086Z,5.70
2023-03-21T00:01:26.024Z,4.80
2023-03-21T00:02:26.030Z,6.30
2023-03-21T00:03:26.042Z,5.80
2023-03-21T00:04:26.049Z,7.40
2023-03-21T00:05:26.044Z,5.40
2023-03-21T00:06:25.988Z,5.10
2023-03-21T00:07:25.929Z,5.10
2023-03-21T00:08:25.928Z,3.40
2023-03-21T00:09:25.950Z,7.10
2023-03-21T00:10:39.192Z,6.20
2023-03-21T00:11:27.962Z,4.00
2023-03-21T00:12:25.923Z,4.40
2023-03-21T00:13:25.900Z,4.50
2023-03-21T00:14:25.872Z,5.80
2023-03-21T00:15:40.186Z,5.70
2023-03-21T00:17:26.856Z,4.20
2023-03-21T00:18:25.847Z,6.20
2023-03-21T00:19:25.829Z,6.30
2023-03-21T00:20:25.813Z,7.60
2023-03-21T00:21:55.589Z,6.50
2023-03-21T00:22:27.801Z,6.50
2023-03-21T00:23:25.797Z,5.80
2023-03-21T00:24:25.788Z,4.60
2023-03-21T00:25:25.774Z,7.20
2023-03-21T00:26:25.805Z,5.40
2023-03-21T00:28:27.759Z,4.90
2023-03-21T00:29:25.726Z,5.10
2023-03-21T00:30:25.777Z,4.90
2023-03-21T00:31:25.729Z,4.40
2023-03-21T00:32:25.676Z,5.30
2023-03-21T00:33:25.700Z,4.50
2023-03-21T00:34:36.521Z,5.80
2023-03-21T00:36:06.357Z,6.90
2023-03-21T00:36:27.738Z,4.60
2023-03-21T00:37:25.632Z,7.70
2023-03-21T00:38:25.600Z,5.20
2023-03-21T00:39:25.661Z,4.70
2023-03-21T00:40:31.119Z,4.10
2023-03-21T00:41:41.408Z,5.20
2023-03-21T00:42:27.607Z,5.10
2023-03-21T00:43:25.584Z,4.20
2023-03-21T00:44:25.584Z,4.70
2023-03-21T00:45:25.566Z,7.00
2023-03-21T00:46:30.163Z,8.20
2023-03-21T00:47:26.090Z,7.50
2023-03-21T00:48:25.574Z,4.80
2023-03-21T00:49:25.518Z,6.00
2023-03-21T00:50:25.506Z,5.00
2023-03-21T00:51:25.489Z,9.60
2023-03-21T00:52:39.946Z,4.90
2023-03-21T00:53:27.472Z,6.60
2023-03-21T00:54:25.453Z,5.40
2023-03-21T00:55:25.454Z,5.00
2023-03-21T00:56:25.454Z,5.70
2023-03-21T00:57:38.140Z,5.20
2023-03-21T00:58:27.419Z,4.40
2023-03-21T00:59:25.410Z,5.10
2023-03-21T01:00:25.402Z,5.90
2023-03-21T01:01:25.396Z,3.70
2023-03-21T01:02:25.423Z,5.00
2023-03-21T01:03:25.720Z,5.90
2023-03-21T01:04:26.360Z,4.90
2023-03-21T01:05:25.421Z,7.80
2023-03-21T01:06:25.356Z,4.10
2023-03-21T01:07:25.327Z,5.00
2023-03-21T01:08:31.193Z,6.00
2023-03-21T01:09:26.323Z,4.60
2023-03-21T01:10:25.298Z,6.40
2023-03-21T01:11:25.319Z,6.20
2023-03-21T01:12:25.285Z,5.30
2023-03-21T01:13:25.275Z,5.50
2023-03-21T01:14:25.312Z,4.60
2023-03-21T01:15:25.273Z,4.60
2023-03-21T01:16:25.322Z,5.10
2023-03-21T01:17:25.234Z,4.30
2023-03-21T01:18:25.261Z,5.00
2023-03-21T01:19:32.971Z,4.40
2023-03-21T01:20:27.202Z,6.10
2023-03-21T01:21:25.197Z,4.70
2023-03-21T01:22:25.178Z,5.30
2023-03-21T01:23:25.157Z,6.50
2023-03-21T01:24:25.214Z,6.00
2023-03-21T01:25:25.157Z,5.40
2023-03-21T01:26:25.130Z,4.70
2023-03-21T01:27:25.141Z,4.70
2023-03-21T01:28:25.122Z,4.80
2023-03-21T01:29:25.096Z,4.60
2023-03-21T01:30:28.610Z,3.90
2023-03-21T01:31:25.130Z,6.60
2023-03-21T01:32:25.103Z,5.70
2023-03-21T01:33:25.072Z,6.20
2023-03-21T01:34:25.078Z,5.50
2023-03-21T01:35:26.855Z,4.70
2023-03-21T01:36:25.853Z,4.40
2023-03-21T01:37:25.049Z,7.70
2023-03-21T01:38:25.011Z,4.60
2023-03-21T01:39:25.023Z,7.70
2023-03-21T01:40:25.030Z,4.40
2023-03-21T01:41:33.554Z,6.60
2023-03-21T01:42:25.965Z,5.20
2023-03-21T01:43:24.973Z,6.00
2023-03-21T01:44:24.971Z,4.50
2023-03-21T01:45:25.054Z,6.80
2023-03-21T01:46:24.953Z,5.80
2023-03-21T01:47:24.933Z,4.80
2023-03-21T01:48:24.916Z,5.70
2023-03-21T01:49:24.910Z,5.00
2023-03-21T01:50:24.941Z,5.60
2023-03-21T01:51:24.917Z,5.90
2023-03-21T01:52:37.958Z,7.00
2023-03-21T01:53:26.892Z,6.60
2023-03-21T01:54:24.881Z,6.10
2023-03-21T01:55:56.729Z,6.10
2023-03-21T01:56:24.832Z,3.20
2023-03-21T01:57:30.006Z,5.70
2023-03-21T01:58:25.834Z,4.70
2023-03-21T01:59:24.783Z,4.10
2023-03-21T02:00:24.766Z,5.20
2023-03-21T02:01:24.861Z,5.00
2023-03-21T02:02:24.749Z,4.30
2023-03-21T02:03:35.380Z,5.00
2023-03-21T02:04:26.772Z,4.20
2023-03-21T02:05:24.764Z,5.50
2023-03-21T02:06:24.718Z,6.80
2023-03-21T02:07:24.702Z,4.70
2023-03-21T02:08:38.106Z,6.90
2023-03-21T02:09:26.721Z,7.00
2023-03-21T02:10:24.700Z,7.00
2023-03-21T02:11:24.705Z,6.90
2023-03-21T02:12:24.658Z,5.90
2023-03-21T02:13:24.638Z,4.40
2023-03-21T02:14:29.381Z,4.40
2023-03-21T02:15:26.654Z,5.60
2023-03-21T02:16:24.669Z,5.10
2023-03-21T02:17:24.639Z,6.20
2023-03-21T02:18:24.588Z,4.80
2023-03-21T02:19:32.890Z,3.90
2023-03-21T02:20:26.574Z,6.10
2023-03-21T02:21:24.563Z,4.80
2023-03-21T02:22:24.571Z,6.30
2023-03-21T02:23:24.541Z,6.00
2023-03-21T02:24:24.538Z,6.40
2023-03-21T02:25:24.529Z,5.80
2023-03-21T02:26:26.477Z,6.40
2023-03-21T02:27:25.532Z,5.90
2023-03-21T02:28:24.486Z,4.00
2023-03-21T02:29:24.484Z,5.10
2023-03-21T02:30:37.531Z,7.40
2023-03-21T02:31:26.631Z,6.50
2023-03-21T02:32:36.504Z,4.90
2023-03-21T02:33:25.462Z,6.50
2023-03-21T02:34:24.434Z,4.60
2023-03-21T02:35:24.421Z,4.10
2023-03-21T02:36:24.421Z,6.00
2023-03-21T02:37:36.955Z,5.00
2023-03-21T02:38:25.395Z,3.80
2023-03-21T02:39:24.420Z,5.90
2023-03-21T02:40:24.372Z,6.10
2023-03-21T02:41:27.435Z,4.40
2023-03-21T02:42:25.357Z,5.10
2023-03-21T02:43:24.374Z,5.40
2023-03-21T02:44:24.358Z,5.70
2023-03-21T02:45:24.351Z,4.30
2023-03-21T02:46:28.304Z,6.70
2023-03-21T02:47:26.318Z,5.20
2023-03-21T02:48:31.029Z,6.30
2023-03-21T02:49:26.313Z,6.90
2023-03-21T02:50:24.308Z,7.80
2023-03-21T02:51:24.301Z,4.50
2023-03-21T02:52:37.347Z,5.60
2023-03-21T02:53:25.244Z,5.00
2023-03-21T02:54:38.300Z,5.70
2023-03-21T02:55:26.242Z,4.50
2023-03-21T02:56:24.263Z,4.30
2023-03-21T02:57:31.332Z,5.90
2023-03-21T02:58:26.200Z,8.00
2023-03-21T02:59:24.184Z,6.20
2023-03-21T03:00:24.171Z,4.80
2023-03-21T03:01:24.252Z,4.40
2023-03-21T03:02:24.196Z,9.30
2023-03-21T03:03:33.989Z,3.80
2023-03-21T03:04:26.156Z,7.00
2023-03-21T03:05:24.154Z,5.00
2023-03-21T03:06:24.118Z,5.90
2023-03-21T03:07:24.101Z,5.30
2023-03-21T03:08:35.779Z,4.70
2023-03-21T03:09:26.085Z,7.70
2023-03-21T03:10:24.072Z,7.20
2023-03-21T03:11:24.084Z,5.70
2023-03-21T03:12:24.049Z,9.20
2023-03-21T03:13:24.064Z,5.20
2023-03-21T03:15:26.039Z,4.80
2023-03-21T03:16:24.014Z,4.60
2023-03-21T03:17:24.021Z,5.90
2023-03-21T03:18:25.023Z,5.60
2023-03-21T03:19:24.015Z,5.80
2023-03-21T03:20:23.985Z,6.70
2023-03-21T03:21:23.973Z,6.40
2023-03-21T03:22:23.959Z,4.90
2023-03-21T03:23:23.959Z,5.10
2023-03-21T03:24:23.953Z,5.30
2023-03-21T03:25:36.029Z,9.40
2023-03-21T03:26:25.926Z,7.90
2023-03-21T03:27:23.945Z,7.00
2023-03-21T03:28:23.900Z,6.50
2023-03-21T03:29:23.921Z,5.80
2023-03-21T03:30:29.595Z,6.00
2023-03-21T03:31:23.929Z,7.70
2023-03-21T03:32:23.893Z,6.50
2023-03-21T03:33:23.857Z,4.40
2023-03-21T03:34:23.868Z,5.60
2023-03-21T03:35:23.931Z,5.80
2023-03-21T03:36:32.222Z,5.10
2023-03-21T03:37:25.813Z,5.40
2023-03-21T03:38:23.812Z,7.70
2023-03-21T03:39:23.831Z,5.50
2023-03-21T03:40:23.849Z,5.80
2023-03-21T03:41:23.854Z,5.60
2023-03-21T03:42:28.418Z,5.70
2023-03-21T03:43:25.757Z,5.30
2023-03-21T03:44:23.766Z,6.00
2023-03-21T03:45:23.729Z,4.00
2023-03-21T03:46:23.791Z,4.20
2023-03-21T03:47:32.708Z,4.90
2023-03-21T03:48:24.876Z,5.80
2023-03-21T03:49:23.688Z,5.50
2023-03-21T03:50:23.668Z,5.50
2023-03-21T03:51:23.744Z,5.10
2023-03-21T03:52:23.669Z,6.30
2023-03-21T03:53:23.681Z,5.30
2023-03-21T03:54:23.630Z,5.50
2023-03-21T03:55:23.617Z,4.60
2023-03-21T03:56:23.643Z,4.50
2023-03-21T03:57:23.712Z,4.00
2023-03-21T03:58:25.998Z,5.10
2023-03-21T03:59:25.588Z,5.20
2023-03-21T04:00:23.598Z,6.10
2023-03-21T04:01:23.616Z,5.20
2023-03-21T04:02:23.606Z,6.70
2023-03-21T04:03:23.643Z,5.40
2023-03-21T04:04:23.591Z,5.10
2023-03-21T04:05:23.535Z,4.20
2023-03-21T04:06:23.534Z,5.60
2023-03-21T04:07:23.516Z,5.00
2023-03-21T04:08:23.514Z,5.60
2023-03-21T04:09:31.497Z,5.80
2023-03-21T04:10:25.511Z,5.90
2023-03-21T04:11:23.473Z,5.50
2023-03-21T04:12:23.496Z,4.40
2023-03-21T04:13:23.457Z,6.40
2023-03-21T04:14:24.498Z,6.00
2023-03-21T04:15:23.445Z,5.80
2023-03-21T04:16:23.518Z,5.40
2023-03-21T04:17:23.446Z,6.80
2023-03-21T04:18:23.434Z,9.50
2023-03-21T04:19:23.392Z,5.50
2023-03-21T04:20:35.593Z,5.70
2023-03-21T04:21:25.382Z,7.30
2023-03-21T04:22:23.366Z,5.00
2023-03-21T04:23:23.382Z,5.80
2023-03-21T04:24:23.346Z,6.90
2023-03-21T04:25:32.818Z,8.20
2023-03-21T04:26:25.328Z,5.60
2023-03-21T04:27:23.318Z,6.80
2023-03-21T04:28:23.346Z,6.20
2023-03-21T04:29:23.292Z,5.20
2023-03-21T04:30:23.285Z,7.00
2023-03-21T04:31:26.235Z,6.40
2023-03-21T04:32:24.263Z,6.30
2023-03-21T04:33:23.249Z,6.00
2023-03-21T04:34:23.302Z,6.00
2023-03-21T04:35:23.253Z,5.70
2023-03-21T04:36:23.225Z,5.90
2023-03-21T04:37:23.205Z,5.70
2023-03-21T04:38:23.210Z,6.00
2023-03-21T04:39:23.207Z,6.60
2023-03-21T04:40:23.247Z,5.00
2023-03-21T04:41:23.160Z,8.00
2023-03-21T04:42:23.156Z,4.70
2023-03-21T04:43:23.143Z,6.90
2023-03-21T04:44:23.166Z,5.80
2023-03-21T04:45:23.173Z,6.30
2023-03-21T04:46:23.121Z,5.50
2023-03-21T04:47:23.113Z,4.90
2023-03-21T04:48:23.090Z,5.70
2023-03-21T04:49:23.108Z,6.40
2023-03-21T04:50:23.122Z,9.30
2023-03-21T04:51:23.067Z,5.30
2023-03-21T04:52:25.233Z,4.90
2023-03-21T04:53:23.062Z,7.00
2023-03-21T04:54:23.038Z,6.90
2023-03-21T04:55:23.039Z,5.00
2023-03-21T04:56:23.013Z,8.20
2023-03-21T04:57:22.994Z,5.00
2023-03-21T04:58:23.006Z,9.50
2023-03-21T04:59:23.017Z,7.10
2023-03-21T05:00:23.003Z,6.40
2023-03-21T05:01:23.039Z,5.70
2023-03-21T05:02:22.954Z,7.10
2023-03-21T05:03:22.953Z,5.30
2023-03-21T05:04:22.958Z,6.30
2023-03-21T05:05:22.936Z,6.60
2023-03-21T05:06:22.911Z,5.40
2023-03-21T05:07:22.958Z,4.90
2023-03-21T05:08:22.883Z,4.20
2023-03-21T05:09:22.930Z,4.50
2023-03-21T05:10:22.877Z,6.20
2023-03-21T05:11:22.875Z,7.00
2023-03-21T05:12:22.848Z,6.00
2023-03-21T05:13:22.844Z,4.80
2023-03-21T05:14:22.847Z,7.10
2023-03-21T05:15:22.822Z,5.90
2023-03-21T05:16:22.850Z,7.30
2023-03-21T05:17:22.795Z,5.20
2023-03-21T05:18:22.782Z,5.60
2023-03-21T05:19:22.821Z,5.30
2023-03-21T05:20:22.781Z,4.30
2023-03-21T05:21:22.752Z,5.80
2023-03-21T05:22:22.739Z,5.40
2023-03-21T05:23:23.738Z,8.80
2023-03-21T05:24:22.758Z,7.30
2023-03-21T05:25:22.717Z,7.70
2023-03-21T05:26:22.750Z,8.20
2023-03-21T05:27:22.696Z,6.70
2023-03-21T05:28:22.744Z,5.50
2023-03-21T05:29:22.693Z,6.20
2023-03-21T05:30:22.653Z,6.30
2023-03-21T05:31:22.711Z,5.70
2023-03-21T05:32:22.645Z,8.00
2023-03-21T05:33:22.640Z,9.60
2023-03-21T05:34:22.708Z,6.30
2023-03-21T05:35:22.630Z,4.80
2023-03-21T05:36:22.604Z,4.90
2023-03-21T05:37:22.587Z,6.20
2023-03-21T05:38:22.602Z,6.50
2023-03-21T05:39:22.570Z,6.00
2023-03-21T05:40:22.569Z,8.60
2023-03-21T05:41:22.568Z,8.20
2023-03-21T05:42:22.538Z,5.80
2023-03-21T05:43:22.568Z,6.10
2023-03-21T05:44:22.527Z,5.50
2023-03-21T05:45:22.514Z,7.40
2023-03-21T05:46:22.582Z,8.60
2023-03-21T05:47:22.498Z,7.50
2023-03-21T05:48:22.528Z,6.60
2023-03-21T05:49:22.505Z,6.20
2023-03-21T05:50:22.468Z,5.70
2023-03-21T05:51:22.457Z,6.00
2023-03-21T05:52:22.506Z,6.30
2023-03-21T05:53:23.315Z,6.10
2023-03-21T05:54:23.454Z,8.10
2023-03-21T05:55:22.448Z,5.70
2023-03-21T05:56:22.414Z,6.10
2023-03-21T05:57:22.393Z,8.60
2023-03-21T05:58:22.397Z,7.70
2023-03-21T05:59:22.378Z,7.30
2023-03-21T06:00:22.438Z,6.80
2023-03-21T06:01:22.366Z,5.50
2023-03-21T06:02:23.361Z,6.50
2023-03-21T06:03:22.402Z,6.10
2023-03-21T06:04:22.339Z,7.80
2023-03-21T06:05:22.314Z,5.10
2023-03-21T06:06:22.329Z,7.40
2023-03-21T06:07:22.298Z,6.40
2023-03-21T06:08:22.297Z,6.30
2023-03-21T06:09:22.286Z,5.60
2023-03-21T06:10:22.274Z,8.40
2023-03-21T06:11:22.272Z,7.50
2023-03-21T06:12:22.247Z,9.30
2023-03-21T06:13:22.264Z,5.60
2023-03-21T06:14:22.233Z,5.30
2023-03-21T06:15:22.223Z,6.20
2023-03-21T06:16:22.277Z,7.40
2023-03-21T06:17:22.222Z,7.50
2023-03-21T06:18:22.189Z,8.00
2023-03-21T06:19:22.294Z,8.30
2023-03-21T06:20:22.176Z,6.80
2023-03-21T06:21:22.163Z,11.20
2023-03-21T06:22:22.165Z,9.10
2023-03-21T06:23:22.139Z,9.90
2023-03-21T06:24:22.158Z,9.90
2023-03-21T06:25:22.128Z,9.00
2023-03-21T06:26:22.108Z,7.40
2023-03-21T06:27:22.114Z,8.80
2023-03-21T06:28:22.149Z,14.50
2023-03-21T06:29:22.079Z,14.10
2023-03-21T06:30:22.086Z,8.60
2023-03-21T06:31:22.091Z,10.20
2023-03-21T06:32:22.054Z,8.40
2023-03-21T06:33:22.085Z,9.30
2023-03-21T06:34:22.050Z,8.60
2023-03-21T06:35:22.052Z,5.50
2023-03-21T06:36:22.037Z,6.70
2023-03-21T06:37:22.013Z,6.50
2023-03-21T06:38:22.008Z,7.70
2023-03-21T06:39:22.001Z,5.10
2023-03-21T06:40:21.980Z,5.40
2023-03-21T06:41:22.042Z,7.90
2023-03-21T06:42:21.974Z,6.30
2023-03-21T06:43:21.985Z,5.90
2023-03-21T06:44:21.938Z,7.00
2023-03-21T06:45:21.926Z,8.20
2023-03-21T06:46:21.928Z,7.30
2023-03-21T06:47:21.913Z,6.50
2023-03-21T06:48:22.002Z,7.30
2023-03-21T06:49:21.883Z,5.00
2023-03-21T06:50:21.885Z,7.10
2023-03-21T06:51:21.872Z,6.80
2023-03-21T06:52:21.911Z,8.30
2023-03-21T06:53:21.855Z,7.80
2023-03-21T06:54:21.841Z,5.20
2023-03-21T06:55:21.848Z,7.90
2023-03-21T06:56:21.818Z,6.40
2023-03-21T06:57:21.810Z,9.10
2023-03-21T06:58:21.873Z,6.90
2023-03-21T06:59:21.786Z,12.60
2023-03-21T07:00:21.877Z,7.40
2023-03-21T07:01:21.796Z,9.90
2023-03-21T07:02:21.779Z,7.20
2023-03-21T07:03:22.738Z,6.40
2023-03-21T07:04:21.749Z,7.80
2023-03-21T07:05:21.747Z,5.70
2023-03-21T07:06:21.764Z,6.60
2023-03-21T07:07:21.716Z,5.80
2023-03-21T07:08:21.719Z,7.10
2023-03-21T07:09:21.685Z,7.60
2023-03-21T07:10:21.680Z,7.20
2023-03-21T07:11:21.714Z,7.10
2023-03-21T07:12:21.674Z,7.80
2023-03-21T07:13:21.640Z,7.60
2023-03-21T07:14:21.711Z,7.70
2023-03-21T07:15:21.658Z,9.80
2023-03-21T07:16:21.874Z,5.90
2023-03-21T07:17:21.619Z,7.80
2023-03-21T07:18:21.600Z,6.70
2023-03-21T07:19:21.584Z,6.90
2023-03-21T07:20:21.582Z,7.70
2023-03-21T07:21:21.607Z,6.60
2023-03-21T07:22:21.561Z,6.60
2023-03-21T07:23:21.560Z,5.70
2023-03-21T07:24:21.537Z,5.50
2023-03-21T07:25:21.601Z,6.50
2023-03-21T07:26:21.515Z,7.90
2023-03-21T07:27:21.528Z,7.60
2023-03-21T07:28:21.523Z,8.10
2023-03-21T07:29:21.491Z,5.00
2023-03-21T07:30:21.512Z,10.80
2023-03-21T07:31:21.504Z,7.60
2023-03-21T07:32:21.493Z,9.80
2023-03-21T07:33:21.499Z,6.30
2023-03-21T07:34:21.455Z,7.40
2023-03-21T07:35:21.429Z,7.50
2023-03-21T07:36:21.426Z,8.10
2023-03-21T07:37:21.465Z,8.50
2023-03-21T07:38:21.416Z,5.80
2023-03-21T07:39:21.390Z,7.20
2023-03-21T07:40:21.397Z,7.10
2023-03-21T07:41:21.385Z,5.50
2023-03-21T07:42:21.360Z,7.00
2023-03-21T07:43:21.370Z,7.70
2023-03-21T07:44:21.350Z,6.00
2023-03-21T07:45:21.540Z,5.50
2023-03-21T07:46:21.384Z,5.50
2023-03-21T07:47:21.300Z,5.60
2023-03-21T07:48:21.341Z,5.40
2023-03-21T07:49:21.308Z,6.50
2023-03-21T07:50:21.281Z,7.00
2023-03-21T07:51:21.289Z,6.30
2023-03-21T07:52:21.263Z,7.10
2023-03-21T07:53:21.250Z,5.60
2023-03-21T07:54:21.237Z,4.90
2023-03-21T07:55:27.155Z,6.40
2023-03-21T07:56:53.217Z,5.10
2023-03-21T07:57:21.213Z,6.90
2023-03-21T07:58:21.194Z,8.80
2023-03-21T07:59:21.209Z,6.10
2023-03-21T08:00:21.180Z,10.10
2023-03-21T08:01:21.220Z,7.50
2023-03-21T08:02:21.198Z,7.20
2023-03-21T08:03:21.192Z,7.10
2023-03-21T08:04:21.166Z,6.60
2023-03-21T08:05:21.199Z,6.40
2023-03-21T08:06:21.120Z,7.80
2023-03-21T08:07:21.109Z,6.10
2023-03-21T08:08:21.159Z,5.70
2023-03-21T08:09:21.126Z,5.70
2023-03-21T08:10:21.071Z,8.10
2023-03-21T08:11:21.067Z,6.00
2023-03-21T08:12:21.085Z,6.10
2023-03-21T08:13:21.078Z,6.50
2023-03-21T08:14:21.036Z,4.80
2023-03-21T08:15:21.042Z,4.60
2023-03-21T08:16:21.072Z,5.80
2023-03-21T08:17:21.018Z,6.60
2023-03-21T08:18:21.039Z,5.40
2023-03-21T08:19:20.993Z,7.60
2023-03-21T08:20:20.993Z,4.80
2023-03-21T08:21:21.001Z,6.10
2023-03-21T08:22:20.952Z,5.20
2023-03-21T08:23:20.993Z,7.10
2023-03-21T08:24:20.950Z,4.60
2023-03-21T08:25:20.969Z,4.60
2023-03-21T08:26:20.948Z,6.00
2023-03-21T08:27:20.924Z,5.70
2023-03-21T08:28:20.896Z,6.20
2023-03-21T08:29:20.886Z,7.30
2023-03-21T08:30:20.873Z,7.10
2023-03-21T08:31:20.994Z,7.20
2023-03-21T08:32:20.847Z,4.70
2023-03-21T08:33:20.842Z,4.70
2023-03-21T08:34:20.838Z,5.40
2023-03-21T08:35:20.849Z,6.40
2023-03-21T08:36:20.862Z,7.00
2023-03-21T08:37:20.818Z,7.90
2023-03-21T08:38:20.805Z,7.20
2023-03-21T08:39:20.814Z,5.40
2023-03-21T08:40:20.851Z,6.20
2023-03-21T08:41:20.773Z,5.10
2023-03-21T08:42:20.744Z,5.80
2023-03-21T08:43:20.754Z,8.50
2023-03-21T08:44:20.778Z,7.40
2023-03-21T08:45:20.734Z,7.60
2023-03-21T08:46:20.864Z,7.10
2023-03-21T08:47:20.714Z,5.70
2023-03-21T08:48:20.744Z,7.60
2023-03-21T08:49:20.747Z,7.20
2023-03-21T08:50:20.695Z,6.80
2023-03-21T08:51:20.700Z,6.00
2023-03-21T08:52:20.665Z,6.50
2023-03-21T08:53:20.656Z,8.30
2023-03-21T08:54:20.714Z,8.50
2023-03-21T08:55:20.626Z,7.70
2023-03-21T08:56:20.635Z,6.70
2023-03-21T08:57:20.639Z,6.50
2023-03-21T08:58:20.625Z,8.30
2023-03-21T08:59:20.591Z,8.50
2023-03-21T09:00:20.702Z,8.00
2023-03-21T09:01:20.620Z,7.00
2023-03-21T09:02:20.594Z,7.20
2023-03-21T09:03:20.549Z,7.30
2023-03-21T09:04:20.611Z,6.50
2023-03-21T09:05:20.534Z,8.00
2023-03-21T09:06:20.530Z,6.70
2023-03-21T09:07:20.521Z,7.30
2023-03-21T09:08:20.532Z,6.60
2023-03-21T09:09:20.517Z,7.50
2023-03-21T09:10:22.141Z,5.90
2023-03-21T09:11:21.478Z,7.80
2023-03-21T09:12:20.469Z,5.80
2023-03-21T09:13:20.484Z,7.80
2023-03-21T09:14:21.848Z,8.20
2023-03-21T09:15:21.458Z,7.30
2023-03-21T09:16:20.448Z,8.20
2023-03-21T09:17:21.349Z,9.80
2023-03-21T09:18:21.444Z,7.00
2023-03-21T09:19:20.403Z,6.80
2023-03-21T09:20:20.457Z,6.20
2023-03-21T09:21:20.400Z,7.70
2023-03-21T09:22:20.365Z,8.10
2023-03-21T09:23:20.355Z,9.80
2023-03-21T09:24:20.359Z,10.00
2023-03-21T09:25:20.336Z,6.60
2023-03-21T09:26:20.341Z,7.40
2023-03-21T09:27:20.321Z,7.40
2023-03-21T09:28:20.333Z,8.90
2023-03-21T09:29:20.331Z,9.90
2023-03-21T09:30:20.281Z,13.40
2023-03-21T09:31:20.325Z,9.60
2023-03-21T09:32:20.269Z,9.40
2023-03-21T09:33:20.249Z,8.60
2023-03-21T09:34:20.291Z,7.30
2023-03-21T09:35:20.516Z,10.60
2023-03-21T09:36:20.218Z,11.00
2023-03-21T09:37:20.217Z,8.80
2023-03-21T09:38:20.228Z,8.30
2023-03-21T09:39:20.770Z,8.20
2023-03-21T09:40:20.210Z,8.50
2023-03-21T09:41:20.184Z,8.50
2023-03-21T09:42:20.201Z,6.50
2023-03-21T09:43:20.158Z,10.50
2023-03-21T09:44:20.198Z,6.00
2023-03-21T09:45:20.137Z,9.20
2023-03-21T09:46:20.166Z,9.20
2023-03-21T09:47:20.139Z,7.60
2023-03-21T09:48:20.207Z,8.00
2023-03-21T09:49:20.107Z,7.50
2023-03-21T09:50:20.456Z,6.90
2023-03-21T09:51:20.083Z,9.10
2023-03-21T09:52:20.071Z,9.10
2023-03-21T09:53:20.057Z,10.90
2023-03-21T09:54:20.073Z,7.10
2023-03-21T09:55:20.144Z,7.80
2023-03-21T09:56:20.214Z,6.70
2023-03-21T09:57:20.023Z,7.40
2023-03-21T09:58:20.003Z,7.80
2023-03-21T09:59:20.038Z,6.20
2023-03-21T10:00:19.988Z,7.10
2023-03-21T10:01:20.128Z,10.30
2023-03-21T10:02:19.972Z,8.00
2023-03-21T10:03:19.946Z,8.00
2023-03-21T10:04:19.994Z,9.20
2023-03-21T10:05:19.949Z,7.30
2023-03-21T10:06:20.222Z,6.30
2023-03-21T10:07:19.960Z,8.00
2023-03-21T10:08:19.933Z,6.50
2023-03-21T10:09:19.902Z,8.90
2023-03-21T10:10:19.885Z,7.00
2023-03-21T10:11:19.909Z,6.90
2023-03-21T10:12:19.921Z,9.20
2023-03-21T10:13:19.863Z,8.80
2023-03-21T10:14:19.858Z,9.70
2023-03-21T10:15:19.838Z,7.60
2023-03-21T10:16:19.920Z,6.70
2023-03-21T10:17:19.831Z,5.50
2023-03-21T10:18:19.809Z,7.00
2023-03-21T10:19:19.813Z,7.60
2023-03-21T10:20:19.784Z,7.60
2023-03-21T10:21:43.035Z,7.00
2023-03-21T10:22:21.832Z,8.10
2023-03-21T10:23:19.747Z,5.90
2023-03-21T10:24:19.757Z,6.90
2023-03-21T10:25:19.784Z,6.00
2023-03-21T10:26:21.106Z,9.30
2023-03-21T10:27:20.726Z,5.30
2023-03-21T10:28:19.708Z,7.80
2023-03-21T10:29:19.717Z,9.30
2023-03-21T10:30:19.679Z,6.90
2023-03-21T10:31:19.738Z,8.80
2023-03-21T10:32:19.691Z,8.40
2023-03-21T10:33:19.749Z,7.50
2023-03-21T10:34:19.661Z,6.70
2023-03-21T10:35:19.637Z,7.50
2023-03-21T10:36:19.671Z,7.60
2023-03-21T10:37:19.603Z,7.10
2023-03-21T10:38:19.620Z,7.00
2023-03-21T10:39:19.582Z,7.40
2023-03-21T10:40:19.571Z,7.30
2023-03-21T10:41:19.585Z,8.80
2023-03-21T10:42:19.606Z,8.80
2023-03-21T10:43:19.547Z,9.80
2023-03-21T10:44:19.576Z,7.70
2023-03-21T10:45:19.607Z,7.80
2023-03-21T10:46:19.646Z,10.30
2023-03-21T10:47:19.664Z,8.30
2023-03-21T10:48:19.622Z,9.50
2023-03-21T10:49:19.486Z,10.80
2023-03-21T10:50:19.513Z,9.30
2023-03-21T10:51:19.491Z,9.60
2023-03-21T10:52:19.445Z,8.20
2023-03-21T10:53:19.444Z,8.20
2023-03-21T10:54:19.442Z,7.00
2023-03-21T10:55:19.446Z,10.50
2023-03-21T10:56:19.411Z,7.60
2023-03-21T10:57:19.418Z,9.60
2023-03-21T10:58:19.417Z,11.20
2023-03-21T10:59:20.514Z,7.00
2023-03-21T11:00:20.425Z,7.00
2023-03-21T11:01:19.401Z,8.50
2023-03-21T11:02:19.384Z,9.40
2023-03-21T11:03:19.349Z,8.00
2023-03-21T11:04:19.332Z,7.80
2023-03-21T11:05:20.769Z,10.30
2023-03-21T11:06:20.314Z,10.60
2023-03-21T11:07:19.313Z,8.10
2023-03-21T11:08:20.289Z,7.60
2023-03-21T11:09:19.292Z,9.60
2023-03-21T11:10:28.159Z,7.70
2023-03-21T11:11:20.412Z,7.90
2023-03-21T11:12:19.268Z,6.90
2023-03-21T11:13:19.273Z,8.00
2023-03-21T11:14:19.257Z,7.30
2023-03-21T11:15:19.308Z,8.10
2023-03-21T11:16:19.281Z,8.70
2023-03-21T11:17:19.243Z,6.80
2023-03-21T11:18:19.229Z,8.30
2023-03-21T11:19:19.204Z,7.00
2023-03-21T11:20:19.178Z,8.60
2023-03-21T11:21:19.181Z,8.90
2023-03-21T11:22:19.167Z,6.70
2023-03-21T11:23:20.851Z,9.20
2023-03-21T11:24:20.139Z,6.50
2023-03-21T11:25:20.124Z,5.30
2023-03-21T11:26:19.118Z,9.00
2023-03-21T11:27:19.119Z,8.40
2023-03-21T11:28:19.120Z,8.40
2023-03-21T11:29:19.427Z,9.50
2023-03-21T11:30:19.064Z,7.30
2023-03-21T11:31:19.199Z,9.20
2023-03-21T11:32:20.096Z,8.80
2023-03-21T11:33:19.033Z,8.70
2023-03-21T11:34:19.065Z,8.40
2023-03-21T11:35:19.900Z,5.70
2023-03-21T11:36:20.099Z,7.10
2023-03-21T11:37:19.008Z,10.40
2023-03-21T11:38:20.036Z,7.20
2023-03-21T11:39:19.001Z,8.50
2023-03-21T11:40:18.993Z,8.00
2023-03-21T11:41:19.509Z,7.00
2023-03-21T11:42:18.954Z,8.10
2023-03-21T11:43:18.956Z,8.20
2023-03-21T11:44:18.949Z,6.60
2023-03-21T11:45:18.944Z,8.00
2023-03-21T11:46:19.978Z,8.20
2023-03-21T11:47:18.927Z,7.50
2023-03-21T11:48:18.978Z,9.30
2023-03-21T11:49:18.891Z,8.50
2023-03-21T11:50:18.898Z,10.20
2023-03-21T11:51:18.871Z,9.60
2023-03-21T11:52:18.868Z,8.10
2023-03-21T11:53:18.842Z,9.80
2023-03-21T11:54:18.854Z,8.60
2023-03-21T11:55:18.829Z,9.20
2023-03-21T11:56:19.816Z,8.40
2023-03-21T11:57:18.825Z,9.30
2023-03-21T11:58:18.804Z,9.40
2023-03-21T11:59:18.780Z,10.30
2023-03-21T12:00:18.783Z,9.80
2023-03-21T12:01:18.775Z,9.80
2023-03-21T12:02:18.841Z,8.10
2023-03-21T12:03:18.891Z,8.30
2023-03-21T12:04:18.797Z,10.80
2023-03-21T12:05:19.414Z,9.40
2023-03-21T12:06:18.715Z,8.60
2023-03-21T12:07:18.735Z,9.60
2023-03-21T12:08:18.695Z,11.40
2023-03-21T12:09:18.795Z,11.70
2023-03-21T12:10:18.677Z,9.20
2023-03-21T12:11:18.672Z,10.80
2023-03-21T12:12:22.027Z,12.90
2023-03-21T12:13:20.658Z,11.90
2023-03-21T12:14:18.659Z,11.10
2023-03-21T12:15:18.729Z,9.90
2023-03-21T12:16:18.748Z,11.70
2023-03-21T12:17:18.628Z,10.60
2023-03-21T12:18:18.594Z,11.60
2023-03-21T12:19:18.681Z,13.40
2023-03-21T12:20:18.600Z,12.00
2023-03-21T12:21:18.601Z,9.80
2023-03-21T12:22:18.590Z,10.80
2023-03-21T12:23:18.671Z,12.10
2023-03-21T12:24:18.543Z,9.30
2023-03-21T12:25:18.532Z,9.10
2023-03-21T12:26:18.573Z,11.10
2023-03-21T12:27:18.510Z,10.90
2023-03-21T12:28:30.093Z,10.90
2023-03-21T12:29:20.537Z,11.80
2023-03-21T12:30:18.565Z,10.90
2023-03-21T12:31:18.493Z,8.90
2023-03-21T12:32:18.448Z,10.20
2023-03-21T12:33:18.473Z,9.80
2023-03-21T12:34:18.453Z,9.70
2023-03-21T12:35:18.503Z,11.90
2023-03-21T12:36:18.486Z,9.40
2023-03-21T12:37:18.398Z,7.90
2023-03-21T12:38:18.389Z,8.50
2023-03-21T12:39:18.408Z,9.60
2023-03-21T12:40:18.398Z,7.00
2023-03-21T12:41:18.374Z,7.80
2023-03-21T12:42:18.394Z,7.50
2023-03-21T12:43:18.346Z,8.00
2023-03-21T12:44:18.346Z,9.20
2023-03-21T12:45:18.363Z,9.90
2023-03-21T12:46:18.339Z,7.50
2023-03-21T12:47:18.304Z,6.50
2023-03-21T12:48:18.332Z,7.00
2023-03-21T12:49:18.303Z,7.80
2023-03-21T12:50:18.307Z,8.10
2023-03-21T12:51:18.341Z,8.90
2023-03-21T12:52:18.245Z,8.50
2023-03-21T12:53:18.245Z,10.10
2023-03-21T12:54:18.254Z,9.90
2023-03-21T12:55:18.224Z,9.30
2023-03-21T12:56:18.234Z,9.10
2023-03-21T12:57:18.214Z,8.60
2023-03-21T12:58:18.218Z,8.90
2023-03-21T12:59:18.180Z,8.80
2023-03-21T13:00:18.176Z,10.70
2023-03-21T13:01:18.238Z,6.90
2023-03-21T13:02:18.166Z,9.60
2023-03-21T13:03:19.564Z,10.00
2023-03-21T13:04:19.187Z,9.80
2023-03-21T13:05:18.120Z,9.50
2023-03-21T13:06:18.131Z,10.60
2023-03-21T13:07:18.260Z,9.40
2023-03-21T13:08:18.088Z,9.60
2023-03-21T13:09:23.334Z,10.20
2023-03-21T13:10:18.083Z,10.00
2023-03-21T13:11:18.053Z,9.80
2023-03-21T13:12:18.064Z,8.20
2023-03-21T13:13:18.039Z,11.30
2023-03-21T13:14:18.023Z,8.40
2023-03-21T13:15:23.720Z,12.20
2023-03-21T13:16:19.065Z,13.20
2023-03-21T13:17:18.005Z,10.70
2023-03-21T13:18:17.999Z,10.40
2023-03-21T13:19:17.999Z,10.60